sensor_id;sensor_type;location;lat;lon;timestamp;pressure;altitude;pressure_sealevel;temperature;humidity
59168;BME280;44948;55.046;73.266;2022-07-22T00:01:28;98679.25;;;15.96;74.95
59168;BME280;44948;55.046;73.266;2022-07-22T00:03:11;98681.56;;;15.99;75.36
59168;BME280;44948;55.046;73.266;2022-07-22T00:04:53;98678.34;;;16.03;75.29
59168;BME280;44948;55.046;73.266;2022-07-22T00:06:35;98679.44;;;16.09;75.14
59168;BME280;44948;55.046;73.266;2022-07-22T00:08:18;98659.75;;;15.97;74.92
59168;BME280;44948;55.046;73.266;2022-07-22T00:10:00;98682.38;;;16.14;74.87
59168;BME280;44948;55.046;73.266;2022-07-22T00:11:42;98648.00;;;15.99;74.82
59168;BME280;44948;55.046;73.266;2022-07-22T00:13:27;98665.41;;;16.08;74.91
59168;BME280;44948;55.046;73.266;2022-07-22T00:15:10;98669.88;;;16.08;74.99
59168;BME280;44948;55.046;73.266;2022-07-22T00:16:53;98684.84;;;16.16;75.31
59168;BME280;44948;55.046;73.266;2022-07-22T00:18:35;98691.28;;;16.13;75.53
59168;BME280;44948;55.046;73.266;2022-07-22T00:20:18;98675.25;;;16.00;75.74
59168;BME280;44948;55.046;73.266;2022-07-22T00:22:01;98696.31;;;16.08;75.89
59168;BME280;44948;55.046;73.266;2022-07-22T00:23:43;98671.50;;;15.94;76.06
59168;BME280;44948;55.046;73.266;2022-07-22T00:25:26;98673.13;;;15.95;76.01
59168;BME280;44948;55.046;73.266;2022-07-22T00:27:10;98664.38;;;15.95;75.75
59168;BME280;44948;55.046;73.266;2022-07-22T00:28:52;98703.16;;;16.17;75.78
59168;BME280;44948;55.046;73.266;2022-07-22T00:30:35;98680.53;;;16.00;75.98
59168;BME280;44948;55.046;73.266;2022-07-22T00:32:17;98705.63;;;16.19;75.87
59168;BME280;44948;55.046;73.266;2022-07-22T00:34:00;98709.34;;;16.24;75.83
59168;BME280;44948;55.046;73.266;2022-07-22T00:35:43;98704.06;;;16.24;75.75
59168;BME280;44948;55.046;73.266;2022-07-22T00:37:25;98703.50;;;16.29;75.54
59168;BME280;44948;55.046;73.266;2022-07-22T00:39:08;98706.63;;;16.32;75.68
59168;BME280;44948;55.046;73.266;2022-07-22T00:40:50;98707.09;;;16.36;75.56
59168;BME280;44948;55.046;73.266;2022-07-22T00:42:32;98700.22;;;16.41;75.50
59168;BME280;44948;55.046;73.266;2022-07-22T00:44:16;98691.91;;;16.30;75.53
59168;BME280;44948;55.046;73.266;2022-07-22T00:45:59;98710.81;;;16.41;75.33
59168;BME280;44948;55.046;73.266;2022-07-22T00:47:41;98710.19;;;16.39;75.57
59168;BME280;44948;55.046;73.266;2022-07-22T00:49:23;98710.00;;;16.41;75.76
59168;BME280;44948;55.046;73.266;2022-07-22T00:51:06;98708.34;;;16.40;75.76
59168;BME280;44948;55.046;73.266;2022-07-22T00:52:48;98709.53;;;16.37;76.00
59168;BME280;44948;55.046;73.266;2022-07-22T00:54:31;98714.47;;;16.40;75.91
59168;BME280;44948;55.046;73.266;2022-07-22T00:56:15;98709.91;;;16.34;76.18
59168;BME280;44948;55.046;73.266;2022-07-22T00:57:57;98693.47;;;16.24;76.05
59168;BME280;44948;55.046;73.266;2022-07-22T00:59:43;98704.25;;;16.37;76.27
59168;BME280;44948;55.046;73.266;2022-07-22T01:01:27;98718.28;;;16.53;75.81
59168;BME280;44948;55.046;73.266;2022-07-22T01:03:09;98711.34;;;16.52;75.53
59168;BME280;44948;55.046;73.266;2022-07-22T01:04:52;98718.53;;;16.58;75.69
59168;BME280;44948;55.046;73.266;2022-07-22T01:06:34;98702.59;;;16.51;75.67
59168;BME280;44948;55.046;73.266;2022-07-22T01:08:17;98717.66;;;16.65;75.54
59168;BME280;44948;55.046;73.266;2022-07-22T01:09:59;98709.59;;;16.59;75.43
59168;BME280;44948;55.046;73.266;2022-07-22T01:11:42;98693.91;;;16.57;75.45
59168;BME280;44948;55.046;73.266;2022-07-22T01:13:24;98722.22;;;16.71;75.54
59168;BME280;44948;55.046;73.266;2022-07-22T01:15:07;98719.75;;;16.70;75.83
59168;BME280;44948;55.046;73.266;2022-07-22T01:16:49;98732.88;;;16.78;75.71
59168;BME280;44948;55.046;73.266;2022-07-22T01:18:33;98719.38;;;16.73;75.69
59168;BME280;44948;55.046;73.266;2022-07-22T01:20:18;98725.94;;;16.77;75.67
59168;BME280;44948;55.046;73.266;2022-07-22T01:22:04;98730.84;;;16.80;75.53
59168;BME280;44948;55.046;73.266;2022-07-22T01:23:46;98739.09;;;16.85;75.56
59168;BME280;44948;55.046;73.266;2022-07-22T01:25:31;98738.34;;;16.91;75.35
59168;BME280;44948;55.046;73.266;2022-07-22T01:27:13;98725.66;;;16.87;75.07
59168;BME280;44948;55.046;73.266;2022-07-22T01:28:55;98732.56;;;17.02;75.24
59168;BME280;44948;55.046;73.266;2022-07-22T01:30:38;98729.09;;;17.02;75.16
59168;BME280;44948;55.046;73.266;2022-07-22T01:32:26;98742.16;;;17.03;75.29
59168;BME280;44948;55.046;73.266;2022-07-22T01:34:08;98727.00;;;16.97;75.50
59168;BME280;44948;55.046;73.266;2022-07-22T01:35:52;98738.94;;;17.08;75.48
59168;BME280;44948;55.046;73.266;2022-07-22T01:37:34;98728.91;;;17.03;75.59
59168;BME280;44948;55.046;73.266;2022-07-22T01:39:17;98739.13;;;17.07;75.67
59168;BME280;44948;55.046;73.266;2022-07-22T01:41:00;98752.34;;;17.07;75.87
59168;BME280;44948;55.046;73.266;2022-07-22T01:42:43;98736.66;;;17.05;75.87
59168;BME280;44948;55.046;73.266;2022-07-22T01:44:26;98750.59;;;17.14;75.91
59168;BME280;44948;55.046;73.266;2022-07-22T01:46:09;98749.59;;;17.15;75.48
59168;BME280;44948;55.046;73.266;2022-07-22T01:47:55;98751.50;;;17.21;75.04
59168;BME280;44948;55.046;73.266;2022-07-22T01:49:41;98746.88;;;17.29;74.53
59168;BME280;44948;55.046;73.266;2022-07-22T01:51:23;98751.00;;;17.32;74.23
59168;BME280;44948;55.046;73.266;2022-07-22T01:53:05;98750.19;;;17.31;73.97
59168;BME280;44948;55.046;73.266;2022-07-22T01:54:48;98757.56;;;17.36;73.76
59168;BME280;44948;55.046;73.266;2022-07-22T01:56:32;98765.38;;;17.44;73.67
59168;BME280;44948;55.046;73.266;2022-07-22T01:58:14;98761.72;;;17.45;73.63
59168;BME280;44948;55.046;73.266;2022-07-22T01:59:57;98750.38;;;17.51;73.50
59168;BME280;44948;55.046;73.266;2022-07-22T02:01:40;98768.78;;;17.59;73.25
59168;BME280;44948;55.046;73.266;2022-07-22T02:03:23;98769.34;;;17.70;73.29
59168;BME280;44948;55.046;73.266;2022-07-22T02:05:06;98767.94;;;17.74;72.97
59168;BME280;44948;55.046;73.266;2022-07-22T02:06:49;98753.63;;;17.68;72.73
59168;BME280;44948;55.046;73.266;2022-07-22T02:08:31;98756.69;;;17.72;72.60
59168;BME280;44948;55.046;73.266;2022-07-22T02:10:23;98732.84;;;17.50;72.62
59168;BME280;44948;55.046;73.266;2022-07-22T02:12:05;98771.03;;;17.77;72.98
59168;BME280;44948;55.046;73.266;2022-07-22T02:13:55;98761.19;;;17.71;73.18
59168;BME280;44948;55.046;73.266;2022-07-22T02:15:37;98782.00;;;17.53;73.71
59168;BME280;44948;55.046;73.266;2022-07-22T02:17:20;98769.78;;;17.73;73.09
59168;BME280;44948;55.046;73.266;2022-07-22T02:19:02;98773.75;;;17.84;72.21
59168;BME280;44948;55.046;73.266;2022-07-22T02:20:45;98782.56;;;17.91;71.99
59168;BME280;44948;55.046;73.266;2022-07-22T02:22:29;98777.25;;;17.91;71.79
59168;BME280;44948;55.046;73.266;2022-07-22T02:24:11;98793.69;;;18.01;71.94
59168;BME280;44948;55.046;73.266;2022-07-22T02:25:53;98790.63;;;18.04;71.79
59168;BME280;44948;55.046;73.266;2022-07-22T02:27:36;98793.91;;;18.06;71.85
59168;BME280;44948;55.046;73.266;2022-07-22T02:29:21;98781.34;;;17.93;71.61
59168;BME280;44948;55.046;73.266;2022-07-22T02:31:04;98777.25;;;17.91;71.83
59168;BME280;44948;55.046;73.266;2022-07-22T02:32:46;98799.59;;;18.03;72.01
59168;BME280;44948;55.046;73.266;2022-07-22T02:34:28;98800.66;;;18.09;72.04
59168;BME280;44948;55.046;73.266;2022-07-22T02:36:10;98786.97;;;18.05;71.65
59168;BME280;44948;55.046;73.266;2022-07-22T02:37:53;98804.81;;;18.18;71.06
59168;BME280;44948;55.046;73.266;2022-07-22T02:39:35;98805.25;;;18.21;71.10
59168;BME280;44948;55.046;73.266;2022-07-22T02:41:17;98769.53;;;17.96;70.83
59168;BME280;44948;55.046;73.266;2022-07-22T02:43:06;98795.78;;;18.12;70.81
59168;BME280;44948;55.046;73.266;2022-07-22T02:44:49;98814.81;;;17.94;71.84
59168;BME280;44948;55.046;73.266;2022-07-22T02:46:31;98810.34;;;18.16;71.60
59168;BME280;44948;55.046;73.266;2022-07-22T02:48:25;98813.44;;;18.27;72.06
59168;BME280;44948;55.046;73.266;2022-07-22T02:50:07;98796.28;;;18.22;71.57
59168;BME280;44948;55.046;73.266;2022-07-22T02:51:51;98814.78;;;18.44;71.40
59168;BME280;44948;55.046;73.266;2022-07-22T02:53:33;98821.34;;;18.48;70.68
59168;BME280;44948;55.046;73.266;2022-07-22T02:55:18;98816.50;;;18.51;70.66
59168;BME280;44948;55.046;73.266;2022-07-22T02:57:01;98818.59;;;18.56;70.83
59168;BME280;44948;55.046;73.266;2022-07-22T02:58:45;98828.19;;;18.57;70.96
59168;BME280;44948;55.046;73.266;2022-07-22T03:00:27;98830.97;;;18.21;70.92
59168;BME280;44948;55.046;73.266;2022-07-22T03:02:11;98818.81;;;18.33;71.05
59168;BME280;44948;55.046;73.266;2022-07-22T03:03:53;98829.47;;;18.40;70.56
59168;BME280;44948;55.046;73.266;2022-07-22T03:05:36;98817.63;;;18.36;70.23
59168;BME280;44948;55.046;73.266;2022-07-22T03:07:32;98836.09;;;18.50;69.90
59168;BME280;44948;55.046;73.266;2022-07-22T03:09:17;98839.22;;;18.54;70.26
59168;BME280;44948;55.046;73.266;2022-07-22T03:11:01;98841.25;;;18.59;69.54
59168;BME280;44948;55.046;73.266;2022-07-22T03:12:43;98855.97;;;18.61;69.55
59168;BME280;44948;55.046;73.266;2022-07-22T03:14:26;98840.19;;;18.53;69.79
59168;BME280;44948;55.046;73.266;2022-07-22T03:16:08;98850.47;;;18.63;69.52
59168;BME280;44948;55.046;73.266;2022-07-22T03:17:52;98850.13;;;18.66;69.42
59168;BME280;44948;55.046;73.266;2022-07-22T03:19:35;98853.13;;;18.35;70.06
59168;BME280;44948;55.046;73.266;2022-07-22T03:21:17;98817.81;;;18.34;70.08
59168;BME280;44948;55.046;73.266;2022-07-22T03:23:00;98854.91;;;18.28;70.71
59168;BME280;44948;55.046;73.266;2022-07-22T03:24:42;98858.50;;;18.48;70.26
59168;BME280;44948;55.046;73.266;2022-07-22T03:26:24;98854.47;;;18.52;69.72
59168;BME280;44948;55.046;73.266;2022-07-22T03:28:07;98861.88;;;18.57;69.83
59168;BME280;44948;55.046;73.266;2022-07-22T03:29:49;98861.91;;;18.63;70.02
59168;BME280;44948;55.046;73.266;2022-07-22T03:31:31;98854.22;;;18.68;70.17
59168;BME280;44948;55.046;73.266;2022-07-22T03:33:14;98865.81;;;18.39;70.47
59168;BME280;44948;55.046;73.266;2022-07-22T03:34:57;98856.78;;;18.55;69.71
59168;BME280;44948;55.046;73.266;2022-07-22T03:36:39;98871.16;;;18.67;69.66
59168;BME280;44948;55.046;73.266;2022-07-22T03:38:23;98857.69;;;18.69;69.27
59168;BME280;44948;55.046;73.266;2022-07-22T03:40:05;98869.16;;;18.76;69.14
59168;BME280;44948;55.046;73.266;2022-07-22T03:41:48;98860.75;;;18.72;68.76
59168;BME280;44948;55.046;73.266;2022-07-22T03:43:31;98857.91;;;18.74;69.14
59168;BME280;44948;55.046;73.266;2022-07-22T03:45:16;98864.53;;;18.85;68.56
59168;BME280;44948;55.046;73.266;2022-07-22T03:46:58;98853.28;;;18.82;68.54
59168;BME280;44948;55.046;73.266;2022-07-22T03:48:41;98856.34;;;18.86;68.53
59168;BME280;44948;55.046;73.266;2022-07-22T03:50:24;98853.50;;;18.88;68.67
59168;BME280;44948;55.046;73.266;2022-07-22T03:52:06;98850.84;;;18.88;68.25
59168;BME280;44948;55.046;73.266;2022-07-22T03:53:48;98853.28;;;18.82;67.81
59168;BME280;44948;55.046;73.266;2022-07-22T03:55:31;98862.44;;;18.80;68.01
59168;BME280;44948;55.046;73.266;2022-07-22T03:57:14;98855.47;;;18.79;68.10
59168;BME280;44948;55.046;73.266;2022-07-22T03:59:00;98862.06;;;18.83;67.31
59168;BME280;44948;55.046;73.266;2022-07-22T04:00:43;98852.88;;;18.86;67.84
59168;BME280;44948;55.046;73.266;2022-07-22T04:02:25;98853.31;;;18.89;69.00
59168;BME280;44948;55.046;73.266;2022-07-22T04:04:08;98862.38;;;19.08;69.81
59168;BME280;44948;55.046;73.266;2022-07-22T04:05:56;98827.78;;;18.95;68.60
59168;BME280;44948;55.046;73.266;2022-07-22T04:08:05;98852.44;;;19.23;68.34
59168;BME280;44948;55.046;73.266;2022-07-22T04:09:47;98862.50;;;19.34;66.81
59168;BME280;44948;55.046;73.266;2022-07-22T04:11:30;98857.75;;;19.30;66.44
59168;BME280;44948;55.046;73.266;2022-07-22T04:13:12;98838.88;;;19.11;66.39
59168;BME280;44948;55.046;73.266;2022-07-22T04:15:05;98860.00;;;19.20;66.47
59168;BME280;44948;55.046;73.266;2022-07-22T04:16:48;98870.41;;;19.21;66.24
59168;BME280;44948;55.046;73.266;2022-07-22T04:18:31;98858.50;;;19.10;66.13
59168;BME280;44948;55.046;73.266;2022-07-22T04:20:14;98871.66;;;18.84;66.82
59168;BME280;44948;55.046;73.266;2022-07-22T04:22:20;98857.00;;;18.95;67.26
59168;BME280;44948;55.046;73.266;2022-07-22T04:24:03;98867.91;;;19.13;67.24
59168;BME280;44948;55.046;73.266;2022-07-22T04:25:47;98845.81;;;19.06;67.19
59168;BME280;44948;55.046;73.266;2022-07-22T04:27:29;98866.75;;;19.29;67.47
59168;BME280;44948;55.046;73.266;2022-07-22T04:29:11;98862.72;;;19.33;67.55
59168;BME280;44948;55.046;73.266;2022-07-22T04:30:55;98873.84;;;19.50;66.34
59168;BME280;44948;55.046;73.266;2022-07-22T04:32:37;98877.13;;;19.52;65.25
59168;BME280;44948;55.046;73.266;2022-07-22T04:34:19;98877.72;;;19.54;65.32
59168;BME280;44948;55.046;73.266;2022-07-22T04:36:04;98877.72;;;19.54;65.13
59168;BME280;44948;55.046;73.266;2022-07-22T04:37:47;98852.09;;;19.39;64.86
59168;BME280;44948;55.046;73.266;2022-07-22T04:39:30;98876.72;;;19.55;65.28
59168;BME280;44948;55.046;73.266;2022-07-22T04:41:13;98885.31;;;19.63;65.52
59168;BME280;44948;55.046;73.266;2022-07-22T04:42:55;98887.41;;;19.68;65.62
59168;BME280;44948;55.046;73.266;2022-07-22T04:44:41;98879.00;;;19.71;65.68
59168;BME280;44948;55.046;73.266;2022-07-22T04:46:26;98881.25;;;19.74;65.79
59168;BME280;44948;55.046;73.266;2022-07-22T04:48:11;98881.72;;;19.84;64.24
59168;BME280;44948;55.046;73.266;2022-07-22T04:49:53;98867.78;;;19.89;65.68
59168;BME280;44948;55.046;73.266;2022-07-22T04:51:35;98881.31;;;20.00;64.59
59168;BME280;44948;55.046;73.266;2022-07-22T04:53:21;98876.81;;;20.08;64.04
59168;BME280;44948;55.046;73.266;2022-07-22T04:55:04;98893.59;;;20.15;63.88
59168;BME280;44948;55.046;73.266;2022-07-22T04:56:47;98892.38;;;20.24;64.64
59168;BME280;44948;55.046;73.266;2022-07-22T04:58:29;98860.22;;;20.06;63.30
59168;BME280;44948;55.046;73.266;2022-07-22T05:00:12;98896.72;;;20.31;63.72
59168;BME280;44948;55.046;73.266;2022-07-22T05:02:03;98898.56;;;20.31;62.41
59168;BME280;44948;55.046;73.266;2022-07-22T05:03:45;98900.59;;;20.29;62.14
59168;BME280;44948;55.046;73.266;2022-07-22T05:05:27;98907.56;;;20.30;62.40
59168;BME280;44948;55.046;73.266;2022-07-22T05:07:10;98907.78;;;20.35;62.59
59168;BME280;44948;55.046;73.266;2022-07-22T05:08:53;98913.72;;;20.44;63.29
59168;BME280;44948;55.046;73.266;2022-07-22T05:10:35;98912.91;;;20.56;62.81
59168;BME280;44948;55.046;73.266;2022-07-22T05:12:18;98890.38;;;20.52;61.25
59168;BME280;44948;55.046;73.266;2022-07-22T05:14:01;98901.41;;;20.49;59.94
59168;BME280;44948;55.046;73.266;2022-07-22T05:15:44;98910.03;;;20.58;59.71
59168;BME280;44948;55.046;73.266;2022-07-22T05:17:27;98910.66;;;20.53;59.83
59168;BME280;44948;55.046;73.266;2022-07-22T05:19:20;98908.78;;;20.47;61.60
59168;BME280;44948;55.046;73.266;2022-07-22T05:21:05;98911.25;;;20.55;60.69
59168;BME280;44948;55.046;73.266;2022-07-22T05:22:49;98907.56;;;20.56;60.86
59168;BME280;44948;55.046;73.266;2022-07-22T05:24:37;98912.06;;;20.62;61.60
59168;BME280;44948;55.046;73.266;2022-07-22T05:26:19;98921.50;;;20.72;60.77
59168;BME280;44948;55.046;73.266;2022-07-22T05:28:02;98904.50;;;20.73;60.56
59168;BME280;44948;55.046;73.266;2022-07-22T05:29:50;98905.50;;;20.85;61.78
59168;BME280;44948;55.046;73.266;2022-07-22T05:31:33;98902.63;;;20.86;60.67
59168;BME280;44948;55.046;73.266;2022-07-22T05:33:19;98904.06;;;20.89;60.23
59168;BME280;44948;55.046;73.266;2022-07-22T05:35:18;98928.41;;;20.99;59.80
59168;BME280;44948;55.046;73.266;2022-07-22T05:37:00;98901.81;;;20.79;60.47
59168;BME280;44948;55.046;73.266;2022-07-22T05:38:42;98911.00;;;20.83;60.21
59168;BME280;44948;55.046;73.266;2022-07-22T05:40:25;98936.84;;;21.03;59.69
59168;BME280;44948;55.046;73.266;2022-07-22T05:42:08;98939.09;;;21.06;59.21
59168;BME280;44948;55.046;73.266;2022-07-22T05:43:51;98917.38;;;20.89;58.26
59168;BME280;44948;55.046;73.266;2022-07-22T05:45:33;98941.97;;;20.65;58.65
59168;BME280;44948;55.046;73.266;2022-07-22T05:47:16;98953.47;;;20.78;59.71
59168;BME280;44948;55.046;73.266;2022-07-22T05:48:59;98945.88;;;20.88;58.83
59168;BME280;44948;55.046;73.266;2022-07-22T05:50:45;98937.88;;;20.82;58.58
59168;BME280;44948;55.046;73.266;2022-07-22T05:52:28;98934.16;;;20.96;58.98
59168;BME280;44948;55.046;73.266;2022-07-22T05:54:10;98909.16;;;20.97;59.83
59168;BME280;44948;55.046;73.266;2022-07-22T05:55:54;98887.88;;;20.84;59.31
59168;BME280;44948;55.046;73.266;2022-07-22T05:57:36;98935.81;;;21.10;58.98
59168;BME280;44948;55.046;73.266;2022-07-22T05:59:20;98941.56;;;21.07;58.99
59168;BME280;44948;55.046;73.266;2022-07-22T06:01:03;98946.69;;;21.09;59.39
59168;BME280;44948;55.046;73.266;2022-07-22T06:02:47;98933.31;;;21.15;59.04
59168;BME280;44948;55.046;73.266;2022-07-22T06:04:34;98935.59;;;21.18;58.77
59168;BME280;44948;55.046;73.266;2022-07-22T06:06:17;98941.50;;;21.27;58.34
59168;BME280;44948;55.046;73.266;2022-07-22T06:08:02;98932.91;;;21.25;57.40
59168;BME280;44948;55.046;73.266;2022-07-22T06:09:55;98947.66;;;21.34;58.09
59168;BME280;44948;55.046;73.266;2022-07-22T06:11:39;98938.59;;;21.42;56.50
59168;BME280;44948;55.046;73.266;2022-07-22T06:13:21;98938.59;;;21.42;56.56
59168;BME280;44948;55.046;73.266;2022-07-22T06:15:05;98926.28;;;21.41;56.57
59168;BME280;44948;55.046;73.266;2022-07-22T06:16:48;98938.75;;;21.54;57.52
59168;BME280;44948;55.046;73.266;2022-07-22T06:18:31;98942.00;;;21.62;57.78
59168;BME280;44948;55.046;73.266;2022-07-22T06:20:13;98924.34;;;21.68;57.43
59168;BME280;44948;55.046;73.266;2022-07-22T06:21:56;98923.25;;;21.75;56.72
59168;BME280;44948;55.046;73.266;2022-07-22T06:23:39;98948.66;;;21.91;56.33
59168;BME280;44948;55.046;73.266;2022-07-22T06:25:21;98942.06;;;21.94;55.94
59168;BME280;44948;55.046;73.266;2022-07-22T06:27:04;98942.06;;;21.94;56.17
59168;BME280;44948;55.046;73.266;2022-07-22T06:28:46;98927.31;;;21.91;56.22
59168;BME280;44948;55.046;73.266;2022-07-22T06:30:29;98930.50;;;22.06;56.23
59168;BME280;44948;55.046;73.266;2022-07-22T06:32:14;98899.81;;;21.84;55.81
59168;BME280;44948;55.046;73.266;2022-07-22T06:33:57;98948.16;;;22.07;55.43
59168;BME280;44948;55.046;73.266;2022-07-22T06:35:47;98938.72;;;22.05;54.83
59168;BME280;44948;55.046;73.266;2022-07-22T06:37:30;98929.31;;;22.02;54.09
59168;BME280;44948;55.046;73.266;2022-07-22T06:39:12;98931.69;;;22.10;54.53
59168;BME280;44948;55.046;73.266;2022-07-22T06:41:13;98935.34;;;22.16;55.07
59168;BME280;44948;55.046;73.266;2022-07-22T06:43:13;98931.25;;;22.14;53.77
59168;BME280;44948;55.046;73.266;2022-07-22T06:45:14;98918.63;;;22.02;54.07
59168;BME280;44948;55.046;73.266;2022-07-22T06:47:20;98939.16;;;22.02;53.00
59168;BME280;44948;55.046;73.266;2022-07-22T06:49:03;98929.50;;;22.01;52.62
59168;BME280;44948;55.046;73.266;2022-07-22T06:50:49;98932.78;;;22.03;53.20
59168;BME280;44948;55.046;73.266;2022-07-22T06:52:33;98928.22;;;22.10;53.47
59168;BME280;44948;55.046;73.266;2022-07-22T06:54:16;98927.63;;;22.08;53.49
59168;BME280;44948;55.046;73.266;2022-07-22T06:55:58;98916.38;;;21.99;53.31
59168;BME280;44948;55.046;73.266;2022-07-22T06:57:41;98930.13;;;22.03;53.72
59168;BME280;44948;55.046;73.266;2022-07-22T06:59:23;98935.75;;;22.20;53.14
59168;BME280;44948;55.046;73.266;2022-07-22T07:01:06;98935.31;;;22.23;52.79
59168;BME280;44948;55.046;73.266;2022-07-22T07:02:58;98927.16;;;22.42;52.15
59168;BME280;44948;55.046;73.266;2022-07-22T07:04:41;98933.47;;;22.48;50.87
59168;BME280;44948;55.046;73.266;2022-07-22T07:06:23;98937.19;;;22.47;51.16
59168;BME280;44948;55.046;73.266;2022-07-22T07:08:29;98936.81;;;22.44;51.23
59168;BME280;44948;55.046;73.266;2022-07-22T07:10:11;98938.88;;;22.41;51.75
59168;BME280;44948;55.046;73.266;2022-07-22T07:12:24;98935.63;;;22.39;51.77
59168;BME280;44948;55.046;73.266;2022-07-22T07:14:24;98926.81;;;22.32;50.39
59168;BME280;44948;55.046;73.266;2022-07-22T07:16:07;98888.75;;;22.12;50.24
59168;BME280;44948;55.046;73.266;2022-07-22T07:17:50;98911.44;;;22.28;50.40
59168;BME280;44948;55.046;73.266;2022-07-22T07:19:32;98936.06;;;22.36;49.99
59168;BME280;44948;55.046;73.266;2022-07-22T07:21:15;98918.91;;;22.19;50.32
59168;BME280;44948;55.046;73.266;2022-07-22T07:23:00;98934.22;;;22.30;50.15
59168;BME280;44948;55.046;73.266;2022-07-22T07:24:45;98933.59;;;22.35;50.14
59168;BME280;44948;55.046;73.266;2022-07-22T07:26:27;98926.34;;;22.42;48.97
59168;BME280;44948;55.046;73.266;2022-07-22T07:28:10;98932.88;;;22.46;48.95
59168;BME280;44948;55.046;73.266;2022-07-22T07:30:07;98920.53;;;22.52;48.37
59168;BME280;44948;55.046;73.266;2022-07-22T07:31:51;98930.19;;;22.53;48.93
59168;BME280;44948;55.046;73.266;2022-07-22T07:33:35;98869.59;;;22.22;48.42
59168;BME280;44948;55.046;73.266;2022-07-22T07:35:20;98931.63;;;22.24;49.67
59168;BME280;44948;55.046;73.266;2022-07-22T07:37:03;98900.69;;;22.34;49.14
59168;BME280;44948;55.046;73.266;2022-07-22T07:38:45;98942.28;;;22.55;49.82
59168;BME280;44948;55.046;73.266;2022-07-22T07:40:31;98939.41;;;22.57;48.56
59168;BME280;44948;55.046;73.266;2022-07-22T07:42:14;98935.50;;;22.53;47.20
59168;BME280;44948;55.046;73.266;2022-07-22T07:43:58;98924.28;;;22.44;47.86
59168;BME280;44948;55.046;73.266;2022-07-22T07:45:41;98942.91;;;22.51;48.38
59168;BME280;44948;55.046;73.266;2022-07-22T07:47:24;98948.25;;;22.51;49.27
59168;BME280;44948;55.046;73.266;2022-07-22T07:49:06;98929.59;;;22.44;48.65
59168;BME280;44948;55.046;73.266;2022-07-22T07:50:50;98928.94;;;22.49;48.52
59168;BME280;44948;55.046;73.266;2022-07-22T07:52:40;98957.00;;;22.64;47.43
59168;BME280;44948;55.046;73.266;2022-07-22T07:54:23;98955.59;;;22.62;47.75
59168;BME280;44948;55.046;73.266;2022-07-22T07:56:06;98959.31;;;22.61;47.91
59168;BME280;44948;55.046;73.266;2022-07-22T07:57:49;98955.44;;;22.57;48.10
59168;BME280;44948;55.046;73.266;2022-07-22T07:59:32;98954.41;;;22.58;48.52
59168;BME280;44948;55.046;73.266;2022-07-22T08:01:17;98955.22;;;22.58;48.81
59168;BME280;44948;55.046;73.266;2022-07-22T08:03:02;98951.28;;;22.61;48.62
59168;BME280;44948;55.046;73.266;2022-07-22T08:04:47;98935.72;;;22.51;49.25
59168;BME280;44948;55.046;73.266;2022-07-22T08:06:33;98930.59;;;22.50;49.75
59168;BME280;44948;55.046;73.266;2022-07-22T08:08:15;98946.44;;;22.76;48.72
59168;BME280;44948;55.046;73.266;2022-07-22T08:09:59;98942.59;;;22.90;47.05
59168;BME280;44948;55.046;73.266;2022-07-22T08:12:01;98951.16;;;22.99;45.43
59168;BME280;44948;55.046;73.266;2022-07-22T08:14:08;98957.31;;;22.99;45.96
59168;BME280;44948;55.046;73.266;2022-07-22T08:15:59;98936.13;;;22.98;46.64
59168;BME280;44948;55.046;73.266;2022-07-22T08:17:42;98949.69;;;23.21;45.64
59168;BME280;44948;55.046;73.266;2022-07-22T08:19:24;98922.72;;;23.05;43.53
59168;BME280;44948;55.046;73.266;2022-07-22T08:21:07;98936.31;;;23.21;44.53
59168;BME280;44948;55.046;73.266;2022-07-22T08:23:10;98939.69;;;23.35;44.37
59168;BME280;44948;55.046;73.266;2022-07-22T08:24:54;98946.91;;;23.53;43.92
59168;BME280;44948;55.046;73.266;2022-07-22T08:26:37;98946.50;;;23.49;43.29
59168;BME280;44948;55.046;73.266;2022-07-22T08:28:20;98948.31;;;23.55;43.50
59168;BME280;44948;55.046;73.266;2022-07-22T08:30:04;98960.31;;;23.65;42.45
59168;BME280;44948;55.046;73.266;2022-07-22T08:31:47;98966.59;;;23.58;43.16
59168;BME280;44948;55.046;73.266;2022-07-22T08:33:32;98971.94;;;23.58;43.14
59168;BME280;44948;55.046;73.266;2022-07-22T08:35:14;98958.84;;;23.50;42.02
59168;BME280;44948;55.046;73.266;2022-07-22T08:36:57;98966.75;;;23.45;43.12
59168;BME280;44948;55.046;73.266;2022-07-22T08:38:40;98966.44;;;23.35;41.54
59168;BME280;44948;55.046;73.266;2022-07-22T08:40:22;98971.63;;;23.30;41.74
59168;BME280;44948;55.046;73.266;2022-07-22T08:42:06;98974.63;;;23.40;43.29
59168;BME280;44948;55.046;73.266;2022-07-22T08:43:49;98980.66;;;23.54;43.83
59168;BME280;44948;55.046;73.266;2022-07-22T08:45:33;98979.66;;;23.67;45.38
59168;BME280;44948;55.046;73.266;2022-07-22T08:47:19;98976.47;;;23.76;45.27
59168;BME280;44948;55.046;73.266;2022-07-22T08:49:26;98957.72;;;23.76;45.14
59168;BME280;44948;55.046;73.266;2022-07-22T08:51:16;98980.25;;;24.05;44.85
59168;BME280;44948;55.046;73.266;2022-07-22T08:53:12;98981.53;;;24.14;45.55
59168;BME280;44948;55.046;73.266;2022-07-22T08:54:56;98982.13;;;24.16;44.44
59168;BME280;44948;55.046;73.266;2022-07-22T08:56:39;98982.00;;;24.11;44.07
59168;BME280;44948;55.046;73.266;2022-07-22T08:58:22;98960.47;;;23.88;43.89
59168;BME280;44948;55.046;73.266;2022-07-22T09:00:16;98989.31;;;23.86;44.31
59168;BME280;44948;55.046;73.266;2022-07-22T09:02:04;98973.41;;;23.73;44.41
59168;BME280;44948;55.046;73.266;2022-07-22T09:05:34;98995.44;;;23.56;43.83
59168;BME280;44948;55.046;73.266;2022-07-22T09:09:08;98993.63;;;23.50;44.39
59168;BME280;44948;55.046;73.266;2022-07-22T09:11:16;98981.66;;;23.35;44.18